Sugarloaf Shores, Florida
Current Conditions -  °F | °C
As of 11:53 PM on Friday 28 Nov 2014 (Local Time) from KNQX Reporting Station
Clear Clear  
Wind Chill: 62°   Ceiling: Unl
Heat Index: 62°   Visibility: 10mi
Dew Point: 55°   Wind: 15mph
Humidity: 78%   Direction: 20°NNE
Pressure: 30.17"   Gusts: 23mph
Location:  24.64°N, 81.56°W
Report Text: KNQX 290453Z AUTO 02013G20KT 10SM CLR 17/13 A3017 RMK AO2 SLP215 T01670128 402610144 $
Loading
Personal Weather Stations






























Interactive Weather Map New forecast layout! Learn more

10-Day Weather Forecast

Advertisements
Track Severe Weather on mobile